createdAt,value
2019-03-29T00:02:17.826Z,81.60
2019-03-29T00:04:48.939Z,81.70
2019-03-29T00:07:20.074Z,82.00
2019-03-29T00:09:50.930Z,81.70
2019-03-29T00:12:22.013Z,82.40
2019-03-29T00:14:53.342Z,82.00
2019-03-29T00:17:24.109Z,81.90
2019-03-29T00:19:55.086Z,82.00
2019-03-29T00:22:26.722Z,81.70
2019-03-29T00:25:00.591Z,81.60
2019-03-29T00:27:31.979Z,81.50
2019-03-29T00:30:02.767Z,81.20
2019-03-29T00:32:33.618Z,81.20
2019-03-29T00:35:05.758Z,80.90
2019-03-29T00:37:36.743Z,80.90
2019-03-29T00:40:13.619Z,80.80
2019-03-29T00:42:44.601Z,80.80
2019-03-29T00:45:16.888Z,80.30
2019-03-29T00:47:48.954Z,80.20
2019-03-29T00:50:19.886Z,80.20
2019-03-29T00:52:55.201Z,79.90
2019-03-29T00:55:31.033Z,79.80
2019-03-29T00:58:06.301Z,79.60
2019-03-29T01:00:39.189Z,79.90
2019-03-29T01:03:11.792Z,79.40
2019-03-29T01:05:51.599Z,79.60
2019-03-29T01:08:22.409Z,78.70
2019-03-29T01:11:00.013Z,78.20
2019-03-29T01:13:31.304Z,78.00
2019-03-29T01:16:03.336Z,77.80
2019-03-29T01:25:11.004Z,77.10
2019-03-29T01:27:42.667Z,76.80
2019-03-29T01:30:14.025Z,76.60
2019-03-29T01:32:45.221Z,76.30
2019-03-29T01:35:27.563Z,76.20
2019-03-29T01:37:58.283Z,76.10
2019-03-29T01:40:32.419Z,76.10
2019-03-29T01:43:04.617Z,75.50
2019-03-29T01:45:36.155Z,75.10
2019-03-29T01:48:11.588Z,74.90
2019-03-29T01:56:55.656Z,73.60
2019-03-29T01:59:33.813Z,73.80
2019-03-29T02:02:11.030Z,73.40
2019-03-29T02:04:42.063Z,73.30
2019-03-29T02:07:12.997Z,73.10
2019-03-29T02:09:43.718Z,72.70
2019-03-29T02:12:14.786Z,72.60
2019-03-29T02:14:48.913Z,71.70
2019-03-29T02:17:20.245Z,72.00
2019-03-29T02:19:51.617Z,71.70
2019-03-29T02:22:22.762Z,71.10
2019-03-29T02:24:54.055Z,70.70
2019-03-29T02:27:25.009Z,70.90
2019-03-29T02:29:56.584Z,70.30
2019-03-29T02:32:34.930Z,69.30
2019-03-29T02:35:12.213Z,68.40
2019-03-29T02:37:44.162Z,69.30
2019-03-29T02:40:15.442Z,68.10
2019-03-29T02:42:51.523Z,68.20
2019-03-29T02:45:20.677Z,68.70
2019-03-29T02:47:56.599Z,67.60
2019-03-29T02:50:30.858Z,68.30
2019-03-29T02:53:02.098Z,68.40
2019-03-29T02:55:39.076Z,68.00
2019-03-29T02:58:12.866Z,66.70
2019-03-29T03:01:02.394Z,67.40
2019-03-29T03:03:33.518Z,67.30
2019-03-29T03:06:04.785Z,66.90
2019-03-29T03:08:35.912Z,66.30
2019-03-29T03:11:07.395Z,65.60
2019-03-29T03:13:38.276Z,65.60
2019-03-29T03:16:12.114Z,64.00
2019-03-29T03:18:43.363Z,64.90
2019-03-29T03:21:14.697Z,64.70
2019-03-29T03:23:45.811Z,64.50
2019-03-29T03:26:17.259Z,62.60
2019-03-29T03:28:48.248Z,63.10
2019-03-29T03:31:19.483Z,63.00
2019-03-29T03:33:55.548Z,64.10
2019-03-29T03:36:27.057Z,63.50
2019-03-29T03:39:06.558Z,62.70
2019-03-29T03:41:35.982Z,60.50
2019-03-29T03:44:07.006Z,59.50
2019-03-29T03:46:38.593Z,62.50
2019-03-29T03:49:09.770Z,62.40
2019-03-29T03:51:41.086Z,60.20
2019-03-29T03:54:14.811Z,61.10
2019-03-29T03:56:52.365Z,61.80
2019-03-29T03:59:25.158Z,61.60
2019-03-29T04:01:56.057Z,62.20
2019-03-29T04:04:30.891Z,62.20
2019-03-29T04:07:01.760Z,62.40
2019-03-29T04:09:48.624Z,62.90
2019-03-29T04:12:12.349Z,62.20
2019-03-29T04:14:43.463Z,61.90
2019-03-29T04:17:17.614Z,62.20
2019-03-29T04:19:50.186Z,62.20
2019-03-29T04:22:21.032Z,62.10
2019-03-29T04:24:52.051Z,61.90
2019-03-29T04:27:23.005Z,59.90
2019-03-29T04:29:53.994Z,60.20
2019-03-29T04:32:31.355Z,60.70
2019-03-29T04:35:02.515Z,61.00
2019-03-29T04:37:33.728Z,61.50
2019-03-29T04:40:08.435Z,60.90
2019-03-29T04:42:38.637Z,59.80
2019-03-29T04:45:10.134Z,60.20
2019-03-29T04:47:41.294Z,59.90
2019-03-29T04:50:12.983Z,59.60
2019-03-29T04:52:44.034Z,59.80
2019-03-29T04:55:15.207Z,59.40
2019-03-29T04:57:46.249Z,59.60
2019-03-29T05:00:17.483Z,59.60
2019-03-29T05:02:49.801Z,59.90
2019-03-29T05:05:23.746Z,59.30
2019-03-29T05:07:54.719Z,57.60
2019-03-29T05:10:27.153Z,59.00
2019-03-29T05:13:01.873Z,59.20
2019-03-29T05:15:34.457Z,58.70
2019-03-29T05:18:10.275Z,58.00
2019-03-29T05:27:04.665Z,58.60
2019-03-29T05:29:35.738Z,58.20
2019-03-29T05:32:06.777Z,56.90
2019-03-29T05:34:37.676Z,57.80
2019-03-29T05:37:08.671Z,55.30
2019-03-29T05:39:39.628Z,56.90
2019-03-29T05:42:10.640Z,56.90
2019-03-29T05:44:41.551Z,57.40
2019-03-29T05:47:12.628Z,57.20
2019-03-29T05:49:44.012Z,56.90
2019-03-29T05:52:15.159Z,56.80
2019-03-29T05:54:45.961Z,56.50
2019-03-29T05:57:17.586Z,55.30
2019-03-29T05:59:48.464Z,56.90
2019-03-29T06:02:19.612Z,56.90
2019-03-29T06:04:50.580Z,56.60
2019-03-29T06:07:21.839Z,55.70
2019-03-29T06:09:52.952Z,53.70
2019-03-29T06:12:24.198Z,53.30
2019-03-29T06:14:55.349Z,55.90
2019-03-29T06:17:26.380Z,54.20
2019-03-29T06:20:00.400Z,55.10
2019-03-29T06:22:31.648Z,55.10
2019-03-29T06:25:02.570Z,53.40
2019-03-29T06:27:33.632Z,53.40
2019-03-29T06:30:09.748Z,53.90
2019-03-29T06:32:42.153Z,50.70
2019-03-29T06:35:13.603Z,53.10
2019-03-29T06:37:46.930Z,54.00
2019-03-29T06:40:20.203Z,54.80
2019-03-29T06:42:51.119Z,55.20
2019-03-29T06:45:22.180Z,54.20
2019-03-29T06:47:56.142Z,54.40
2019-03-29T06:50:26.856Z,54.80
2019-03-29T06:53:01.484Z,54.10
2019-03-29T06:55:32.529Z,54.80
2019-03-29T06:58:09.448Z,53.30
2019-03-29T07:00:40.951Z,54.40
2019-03-29T07:03:12.323Z,50.40
2019-03-29T07:05:43.357Z,53.90
2019-03-29T07:08:17.407Z,54.70
2019-03-29T07:10:48.530Z,55.80
2019-03-29T07:13:19.363Z,56.70
2019-03-29T07:15:51.576Z,58.90
2019-03-29T07:18:23.191Z,58.80
2019-03-29T07:20:57.187Z,60.10
2019-03-29T07:23:31.993Z,60.20
2019-03-29T07:26:03.076Z,60.90
2019-03-29T07:28:35.823Z,60.80
2019-03-29T07:31:08.813Z,60.50
2019-03-29T07:33:39.917Z,60.30
2019-03-29T07:36:15.853Z,59.90
2019-03-29T07:38:48.173Z,59.70
2019-03-29T07:41:30.979Z,59.60
2019-03-29T07:43:54.532Z,58.80
2019-03-29T07:46:28.750Z,58.70
2019-03-29T07:49:00.334Z,57.70
2019-03-29T07:51:36.270Z,58.30
2019-03-29T07:54:07.215Z,57.90
2019-03-29T07:56:38.486Z,58.10
2019-03-29T07:59:10.948Z,57.60
2019-03-29T08:01:58.131Z,57.20
2019-03-29T08:04:30.070Z,57.20
2019-03-29T08:07:07.933Z,56.40
2019-03-29T08:09:36.388Z,55.70
2019-03-29T08:12:15.222Z,54.20
2019-03-29T08:14:48.385Z,52.80
2019-03-29T08:17:21.741Z,52.50
2019-03-29T08:20:19.050Z,55.00
2019-03-29T08:22:26.942Z,54.20
2019-03-29T08:24:59.355Z,54.70
2019-03-29T08:27:30.586Z,54.40
2019-03-29T08:30:02.748Z,54.70
2019-03-29T08:32:34.097Z,53.80
2019-03-29T08:35:05.961Z,53.50
2019-03-29T08:37:37.049Z,51.40
2019-03-29T08:40:08.169Z,53.60
2019-03-29T08:42:44.057Z,51.80
2019-03-29T08:45:14.725Z,53.60
2019-03-29T08:47:45.759Z,53.10
2019-03-29T08:50:17.663Z,53.60
2019-03-29T08:52:50.296Z,52.80
2019-03-29T08:55:26.750Z,52.20
2019-03-29T08:57:58.916Z,51.70
2019-03-29T09:00:31.954Z,52.50
2019-03-29T09:03:04.472Z,51.90
2019-03-29T09:05:38.761Z,51.40
2019-03-29T09:08:07.819Z,50.60
2019-03-29T09:10:41.526Z,51.30
2019-03-29T09:13:24.232Z,50.70
2019-03-29T09:15:54.991Z,52.10
2019-03-29T09:18:29.010Z,52.00
2019-03-29T09:21:00.999Z,52.80
2019-03-29T09:23:34.687Z,52.10
2019-03-29T09:26:24.027Z,51.30
2019-03-29T09:29:03.558Z,50.10
2019-03-29T09:31:34.861Z,51.00
2019-03-29T09:34:05.799Z,51.70
2019-03-29T09:36:36.798Z,51.90
2019-03-29T09:39:10.186Z,52.20
2019-03-29T09:41:41.201Z,52.20
2019-03-29T09:44:12.448Z,52.50
2019-03-29T09:46:44.058Z,52.10
2019-03-29T09:49:15.813Z,50.20
2019-03-29T09:51:47.034Z,52.80
2019-03-29T09:54:20.487Z,52.50
2019-03-29T09:56:56.307Z,53.10
2019-03-29T09:59:27.306Z,53.40
2019-03-29T10:01:58.655Z,51.90
2019-03-29T10:04:29.504Z,52.10
2019-03-29T10:07:00.431Z,52.40
2019-03-29T10:09:36.553Z,52.30
2019-03-29T10:12:07.730Z,52.50
2019-03-29T10:14:39.408Z,52.40
2019-03-29T10:17:10.218Z,52.10
2019-03-29T10:19:42.061Z,52.00
2019-03-29T10:22:12.814Z,52.20
2019-03-29T10:24:43.739Z,52.20
2019-03-29T10:27:14.976Z,52.20
2019-03-29T10:29:46.889Z,52.20
2019-03-29T10:32:17.880Z,52.00
2019-03-29T10:34:49.083Z,51.30
2019-03-29T10:37:25.295Z,51.90
2019-03-29T10:39:58.216Z,52.00
2019-03-29T10:42:28.679Z,52.00
2019-03-29T10:44:59.635Z,51.40
2019-03-29T10:47:42.981Z,51.80
2019-03-29T10:50:09.616Z,51.90
2019-03-29T10:52:40.494Z,51.50
2019-03-29T10:55:11.737Z,52.40
2019-03-29T10:57:42.775Z,51.90
2019-03-29T11:00:16.981Z,51.90
2019-03-29T11:02:49.510Z,51.60
2019-03-29T11:05:20.773Z,51.80
2019-03-29T11:07:52.604Z,51.90
2019-03-29T11:10:30.304Z,50.00
2019-03-29T11:13:12.873Z,50.60
2019-03-29T11:15:36.143Z,50.40
2019-03-29T11:18:08.126Z,51.80
2019-03-29T11:20:40.029Z,51.40
2019-03-29T11:23:13.929Z,51.90
2019-03-29T11:25:48.235Z,51.70
2019-03-29T11:28:17.068Z,51.90
2019-03-29T11:30:48.255Z,52.00
2019-03-29T11:33:19.129Z,52.30
2019-03-29T11:35:55.787Z,52.10
2019-03-29T11:38:27.681Z,52.40
2019-03-29T11:40:58.642Z,52.40
2019-03-29T11:43:32.088Z,52.40
2019-03-29T11:46:04.608Z,52.60
2019-03-29T11:48:35.546Z,52.80
2019-03-29T11:51:18.552Z,52.80
2019-03-29T11:53:39.017Z,52.60
2019-03-29T11:56:10.061Z,52.70
2019-03-29T11:58:42.376Z,52.80
2019-03-29T12:01:13.742Z,52.80
2019-03-29T12:03:48.235Z,52.90
2019-03-29T12:06:19.293Z,53.20
2019-03-29T12:08:50.528Z,53.10
2019-03-29T12:11:21.424Z,53.30
2019-03-29T12:13:52.355Z,53.90
2019-03-29T12:16:23.450Z,53.90
2019-03-29T12:18:54.293Z,54.10
2019-03-29T12:21:25.998Z,54.30
2019-03-29T12:23:57.051Z,54.40
2019-03-29T12:26:31.317Z,54.70
2019-03-29T12:29:02.271Z,54.90
2019-03-29T12:31:33.497Z,55.00
2019-03-29T12:34:04.971Z,55.10
2019-03-29T12:36:36.115Z,55.20
2019-03-29T12:39:08.683Z,55.50
2019-03-29T12:41:39.559Z,55.50
2019-03-29T12:44:10.463Z,55.60
2019-03-29T12:46:41.543Z,55.80
2019-03-29T12:49:12.437Z,56.60
2019-03-29T12:51:46.345Z,56.10
2019-03-29T12:54:16.180Z,56.20
2019-03-29T12:56:47.050Z,56.30
2019-03-29T12:59:18.184Z,56.40
2019-03-29T13:01:49.287Z,56.70
2019-03-29T13:04:20.326Z,57.50
2019-03-29T13:06:51.107Z,56.90
2019-03-29T13:09:22.045Z,56.90
2019-03-29T13:11:54.099Z,56.90
2019-03-29T13:14:24.914Z,57.10
2019-03-29T13:16:55.780Z,57.10
2019-03-29T13:19:28.048Z,57.20
2019-03-29T13:21:59.004Z,57.10
2019-03-29T13:24:35.314Z,57.10
2019-03-29T13:27:06.237Z,57.10
2019-03-29T13:29:38.471Z,57.20
2019-03-29T13:32:09.342Z,57.10
2019-03-29T13:34:41.708Z,57.40
2019-03-29T13:37:13.073Z,57.40
2019-03-29T13:39:44.105Z,57.40
2019-03-29T13:42:16.086Z,57.60
2019-03-29T13:44:48.521Z,57.70
2019-03-29T13:47:19.309Z,57.80
2019-03-29T13:49:50.118Z,57.70
2019-03-29T13:52:21.302Z,57.90
2019-03-29T13:54:52.328Z,58.10
2019-03-29T13:57:23.265Z,58.10
2019-03-29T13:59:54.228Z,58.00
2019-03-29T14:02:25.144Z,58.00
2019-03-29T14:04:56.344Z,58.20
2019-03-29T14:07:27.238Z,58.20
2019-03-29T14:09:58.263Z,58.40
2019-03-29T14:12:29.253Z,58.40
2019-03-29T14:15:01.426Z,58.60
2019-03-29T14:17:32.987Z,58.40
2019-03-29T14:20:04.974Z,58.30
2019-03-29T14:22:35.858Z,58.30
2019-03-29T14:25:08.532Z,58.30
2019-03-29T14:27:42.485Z,58.50
2019-03-29T14:30:13.916Z,58.20
2019-03-29T14:32:46.274Z,58.20
2019-03-29T14:35:17.258Z,58.20
2019-03-29T14:37:48.039Z,58.20
2019-03-29T14:40:19.096Z,58.20
2019-03-29T14:42:50.154Z,58.20
2019-03-29T14:45:21.078Z,58.40
2019-03-29T14:47:52.054Z,58.50
2019-03-29T14:50:23.050Z,58.70
2019-03-29T14:52:53.864Z,58.70
2019-03-29T14:55:25.009Z,58.70
2019-03-29T14:57:55.942Z,58.90
2019-03-29T15:00:29.717Z,59.00
2019-03-29T15:03:00.583Z,59.00
2019-03-29T15:05:33.757Z,59.00
2019-03-29T15:08:04.672Z,58.90
2019-03-29T15:10:38.902Z,58.90
2019-03-29T15:13:10.064Z,58.90
2019-03-29T15:15:40.950Z,59.00
2019-03-29T15:18:11.945Z,59.20
2019-03-29T15:20:53.407Z,59.10
2019-03-29T15:23:15.576Z,59.70
2019-03-29T15:25:46.369Z,59.30
2019-03-29T15:28:17.525Z,59.30
2019-03-29T15:30:48.430Z,59.30
2019-03-29T15:33:20.836Z,59.40
2019-03-29T15:35:51.969Z,59.30
2019-03-29T15:38:23.138Z,59.30
2019-03-29T15:40:54.208Z,59.30
2019-03-29T15:43:25.114Z,59.30
2019-03-29T15:45:56.008Z,59.40
2019-03-29T15:48:29.432Z,59.30
2019-03-29T15:51:00.588Z,60.00
2019-03-29T15:53:31.535Z,59.30
2019-03-29T15:56:03.650Z,59.30
2019-03-29T15:58:35.249Z,59.30
2019-03-29T16:01:06.629Z,59.40
2019-03-29T16:03:37.633Z,59.20
2019-03-29T16:06:08.456Z,59.30
2019-03-29T16:08:39.585Z,59.40
2019-03-29T16:11:17.052Z,59.40
2019-03-29T16:13:42.743Z,59.40
2019-03-29T16:16:15.494Z,59.50
2019-03-29T16:18:45.953Z,59.80
2019-03-29T16:21:16.870Z,59.80
2019-03-29T16:23:48.146Z,60.30
2019-03-29T16:26:19.050Z,60.10
2019-03-29T16:28:50.030Z,60.10
2019-03-29T16:31:21.046Z,60.10
2019-03-29T16:33:52.077Z,59.90
2019-03-29T16:36:24.120Z,60.00
2019-03-29T16:38:55.510Z,60.10
2019-03-29T16:41:26.484Z,61.10
2019-03-29T16:43:57.353Z,61.20
2019-03-29T16:46:28.460Z,61.40
2019-03-29T16:48:59.283Z,60.80
2019-03-29T16:51:30.290Z,60.70
2019-03-29T16:54:01.259Z,60.60
2019-03-29T16:56:32.415Z,60.70
2019-03-29T16:59:03.456Z,61.10
2019-03-29T17:01:34.446Z,61.00
2019-03-29T17:04:05.394Z,61.40
2019-03-29T17:06:36.426Z,61.50
2019-03-29T17:09:09.336Z,61.40
2019-03-29T17:11:40.492Z,63.30
2019-03-29T17:14:11.501Z,63.30
2019-03-29T17:16:42.661Z,63.00
2019-03-29T17:19:16.350Z,63.30
2019-03-29T17:21:47.230Z,64.40
2019-03-29T17:24:18.413Z,63.50
2019-03-29T17:26:49.240Z,63.80
2019-03-29T17:29:21.398Z,63.70
2019-03-29T17:31:52.429Z,63.10
2019-03-29T17:34:23.376Z,63.10
2019-03-29T17:36:54.490Z,64.30
2019-03-29T17:39:25.700Z,63.50
2019-03-29T17:41:56.716Z,63.80
2019-03-29T17:44:27.788Z,63.10
2019-03-29T17:46:58.581Z,63.60
2019-03-29T17:49:29.699Z,63.10
2019-03-29T17:52:00.621Z,62.90
2019-03-29T17:54:31.571Z,63.20
2019-03-29T17:57:02.884Z,62.90
2019-03-29T17:59:34.282Z,63.40
2019-03-29T18:02:09.581Z,63.40
2019-03-29T18:04:37.873Z,63.70
2019-03-29T18:07:08.670Z,63.90
2019-03-29T18:09:39.670Z,64.60
2019-03-29T18:12:11.501Z,63.80
2019-03-29T18:14:42.619Z,63.50
2019-03-29T18:17:13.519Z,63.20
2019-03-29T18:19:44.874Z,63.30
2019-03-29T18:22:15.711Z,63.50
2019-03-29T18:24:47.130Z,63.90
2019-03-29T18:27:18.170Z,63.70
2019-03-29T18:29:49.062Z,62.80
2019-03-29T18:32:21.569Z,63.20
2019-03-29T18:34:52.761Z,63.90
2019-03-29T18:37:23.753Z,63.70
2019-03-29T18:39:55.569Z,63.20
2019-03-29T18:42:26.663Z,64.10
2019-03-29T18:44:57.772Z,63.20
2019-03-29T18:47:28.818Z,64.70
2019-03-29T18:49:59.695Z,63.70
2019-03-29T18:52:30.579Z,64.40
2019-03-29T18:55:01.373Z,64.30
2019-03-29T18:57:32.261Z,64.60
2019-03-29T19:00:03.164Z,64.20
2019-03-29T19:02:34.097Z,65.00
2019-03-29T19:05:06.121Z,64.20
2019-03-29T19:07:37.155Z,63.90
2019-03-29T19:10:09.517Z,64.10
2019-03-29T19:12:40.585Z,64.40
2019-03-29T19:15:11.384Z,63.80
2019-03-29T19:17:42.294Z,63.80
2019-03-29T19:20:26.813Z,63.80
2019-03-29T19:22:45.920Z,63.70
2019-03-29T19:25:17.233Z,65.20
2019-03-29T19:27:48.224Z,65.10
2019-03-29T19:30:20.346Z,64.70
2019-03-29T19:32:51.240Z,64.30
2019-03-29T19:35:22.095Z,64.60
2019-03-29T19:37:53.208Z,64.00
2019-03-29T19:40:24.186Z,64.00
2019-03-29T19:42:55.180Z,65.10
2019-03-29T19:45:26.212Z,65.10
2019-03-29T19:47:57.159Z,65.00
2019-03-29T19:50:28.180Z,66.00
2019-03-29T19:52:59.263Z,64.90
2019-03-29T19:55:30.300Z,66.50
2019-03-29T19:58:01.306Z,66.50
2019-03-29T20:00:34.613Z,65.30
2019-03-29T20:03:05.430Z,64.60
2019-03-29T20:05:36.403Z,64.60
2019-03-29T20:08:07.121Z,65.20
2019-03-29T20:10:38.403Z,65.90
2019-03-29T20:13:10.008Z,65.80
2019-03-29T20:15:41.251Z,67.20
2019-03-29T20:18:12.525Z,65.60
2019-03-29T20:20:43.739Z,65.50
2019-03-29T20:23:14.792Z,66.90
2019-03-29T20:25:45.926Z,66.80
2019-03-29T20:28:18.346Z,67.30
2019-03-29T20:30:49.355Z,66.10
2019-03-29T20:33:20.171Z,66.40
2019-03-29T20:35:51.292Z,67.60
2019-03-29T20:38:22.120Z,67.00
2019-03-29T20:40:53.332Z,66.60
2019-03-29T20:43:24.503Z,68.10
2019-03-29T20:45:55.269Z,66.60
2019-03-29T20:48:27.314Z,66.60
2019-03-29T20:50:59.140Z,67.70
2019-03-29T20:53:30.411Z,67.20
2019-03-29T20:56:01.339Z,67.00
2019-03-29T20:58:32.209Z,67.60
2019-03-29T21:01:03.207Z,70.30
2019-03-29T21:03:34.230Z,71.40
2019-03-29T21:06:05.341Z,71.70
2019-03-29T21:08:36.439Z,70.60
2019-03-29T21:11:07.333Z,71.30
2019-03-29T21:13:38.624Z,70.00
2019-03-29T21:16:12.280Z,68.60
2019-03-29T21:18:43.839Z,68.30
2019-03-29T21:21:14.777Z,68.10
2019-03-29T21:23:47.222Z,68.40
2019-03-29T21:26:17.917Z,70.40
2019-03-29T21:28:52.721Z,69.90
2019-03-29T21:31:22.502Z,69.60
2019-03-29T21:33:54.016Z,69.40
2019-03-29T21:36:24.991Z,68.30
2019-03-29T21:38:55.892Z,67.60
2019-03-29T21:41:27.004Z,67.80
2019-03-29T21:43:57.677Z,67.60
2019-03-29T21:46:29.216Z,68.20
2019-03-29T21:49:01.398Z,68.70
2019-03-29T21:51:32.537Z,69.40
2019-03-29T21:54:03.466Z,71.60
2019-03-29T21:56:34.488Z,69.90
2019-03-29T21:59:05.497Z,70.00
2019-03-29T22:01:36.415Z,69.30
2019-03-29T22:04:07.433Z,68.70
2019-03-29T22:06:38.441Z,69.90
2019-03-29T22:09:10.518Z,69.00
2019-03-29T22:11:41.329Z,68.40
2019-03-29T22:14:12.219Z,68.90
2019-03-29T22:16:44.390Z,68.60
2019-03-29T22:19:15.308Z,68.40
2019-03-29T22:21:46.203Z,67.70
2019-03-29T22:24:17.140Z,67.80
2019-03-29T22:26:48.391Z,67.50
2019-03-29T22:29:20.825Z,68.60
2019-03-29T22:31:51.859Z,69.80
2019-03-29T22:34:22.812Z,69.80
2019-03-29T22:36:53.506Z,70.20
2019-03-29T22:39:24.674Z,69.70
2019-03-29T22:41:55.441Z,69.00
2019-03-29T22:44:26.278Z,68.30
2019-03-29T22:46:57.460Z,68.10
2019-03-29T22:49:28.646Z,68.10
2019-03-29T22:51:59.747Z,68.30
2019-03-29T22:54:30.962Z,68.30
2019-03-29T22:57:02.173Z,68.30
2019-03-29T22:59:33.328Z,68.30
2019-03-29T23:02:04.509Z,69.30
2019-03-29T23:04:38.427Z,71.20
2019-03-29T23:07:09.612Z,71.00
2019-03-29T23:09:40.654Z,69.40
2019-03-29T23:12:11.812Z,68.80
2019-03-29T23:14:42.790Z,69.30
2019-03-29T23:17:13.752Z,69.80
2019-03-29T23:19:44.639Z,70.70
2019-03-29T23:22:18.372Z,69.90
2019-03-29T23:24:49.287Z,69.90
2019-03-29T23:27:20.485Z,69.60
2019-03-29T23:29:51.404Z,69.20
2019-03-29T23:32:22.539Z,68.90
2019-03-29T23:34:53.468Z,69.20
2019-03-29T23:37:25.497Z,69.20
2019-03-29T23:39:58.996Z,69.80
2019-03-29T23:42:30.267Z,69.20
2019-03-29T23:45:01.220Z,69.00
2019-03-29T23:47:32.158Z,69.60
2019-03-29T23:50:03.138Z,69.80
2019-03-29T23:52:34.492Z,70.00
2019-03-29T23:55:06.005Z,69.90
2019-03-29T23:57:37.111Z,70.60
